createdAt,value
2023-10-26T00:01:57.244Z,98990.31
2023-10-26T00:04:25.709Z,98983.49
2023-10-26T00:06:54.160Z,98978.27
2023-10-26T00:09:22.493Z,98974.56
2023-10-26T00:11:53.944Z,98974.75
2023-10-26T00:14:22.298Z,98967.59
2023-10-26T00:16:50.769Z,98970.73
2023-10-26T00:19:19.056Z,98971.23
2023-10-26T00:21:47.532Z,98968.60
2023-10-26T00:24:16.252Z,98967.02
2023-10-26T00:26:44.278Z,98963.00
2023-10-26T00:29:12.896Z,98960.59
2023-10-26T00:31:41.230Z,98958.98
2023-10-26T00:34:09.513Z,98955.30
2023-10-26T00:36:38.100Z,98951.81
2023-10-26T00:39:06.632Z,98945.14
2023-10-26T00:41:34.725Z,98945.33
2023-10-26T00:44:03.221Z,98943.94
2023-10-26T00:46:32.296Z,98940.27
2023-10-26T00:49:00.497Z,98937.08
2023-10-26T00:51:29.450Z,98934.63
2023-10-26T00:53:57.092Z,98931.86
2023-10-26T00:56:27.747Z,98931.16
2023-10-26T00:58:58.998Z,98930.81
2023-10-26T01:01:28.851Z,98926.44
2023-10-26T01:04:01.705Z,98926.78
2023-10-26T01:06:32.150Z,98923.28
2023-10-26T01:09:02.283Z,98922.94
2023-10-26T01:11:32.348Z,98921.02
2023-10-26T01:14:02.350Z,98914.19
2023-10-26T01:16:32.439Z,98911.95
2023-10-26T01:19:07.190Z,98914.02
2023-10-26T01:21:52.505Z,98909.30
2023-10-26T01:24:22.453Z,98909.84
2023-10-26T01:26:52.420Z,98907.20
2023-10-26T01:29:22.259Z,98907.05
2023-10-26T01:31:52.689Z,98905.65
2023-10-26T01:34:22.737Z,98905.13
2023-10-26T01:36:53.308Z,98902.28
2023-10-26T01:39:23.169Z,98900.88
2023-10-26T01:41:53.100Z,98895.27
2023-10-26T01:44:22.993Z,98895.30
2023-10-26T01:46:52.795Z,98891.97
2023-10-26T01:49:23.078Z,98887.59
2023-10-26T01:51:52.899Z,98883.54
2023-10-26T01:54:22.851Z,98879.39
2023-10-26T01:56:53.295Z,98878.84
2023-10-26T01:59:23.333Z,98880.40
2023-10-26T02:01:53.163Z,98876.52
2023-10-26T02:04:21.598Z,98874.80
2023-10-26T02:06:50.085Z,98873.58
2023-10-26T02:09:18.592Z,98866.21
2023-10-26T02:11:46.993Z,98866.38
2023-10-26T02:14:15.289Z,98863.05
2023-10-26T02:16:43.665Z,98862.34
2023-10-26T02:19:12.240Z,98861.46
2023-10-26T02:21:40.549Z,98859.02
2023-10-26T02:24:09.902Z,98857.45
2023-10-26T02:26:37.362Z,98852.36
2023-10-26T02:29:06.021Z,98850.95
2023-10-26T02:31:34.253Z,98845.52
2023-10-26T02:34:02.675Z,98846.92
2023-10-26T02:36:31.876Z,98846.94
2023-10-26T02:38:59.555Z,98847.80
2023-10-26T02:41:27.893Z,98845.70
2023-10-26T02:43:56.656Z,98844.45
2023-10-26T02:46:24.848Z,98844.08
2023-10-26T02:48:53.082Z,98843.73
2023-10-26T02:51:21.669Z,98844.08
2023-10-26T02:53:49.978Z,98844.77
2023-10-26T02:56:18.456Z,98840.21
2023-10-26T02:58:46.777Z,98838.30
2023-10-26T03:01:15.256Z,98839.17
2023-10-26T03:03:43.922Z,98838.11
2023-10-26T03:06:12.002Z,98841.61
2023-10-26T03:08:40.517Z,98835.83
2023-10-26T03:11:08.854Z,98831.29
2023-10-26T03:13:37.377Z,98832.16
2023-10-26T03:16:07.937Z,98832.50
2023-10-26T03:18:38.422Z,98835.26
2023-10-26T03:21:06.147Z,98831.23
2023-10-26T03:23:33.956Z,98833.88
2023-10-26T03:26:02.445Z,98833.34
2023-10-26T03:28:30.894Z,98830.88
2023-10-26T03:30:59.129Z,98829.11
2023-10-26T03:33:27.760Z,98827.55
2023-10-26T03:35:56.032Z,98831.40
2023-10-26T03:38:24.431Z,98833.67
2023-10-26T03:40:52.882Z,98830.52
2023-10-26T03:43:21.982Z,98831.23
2023-10-26T03:45:49.732Z,98834.71
2023-10-26T03:48:18.197Z,98834.70
2023-10-26T03:50:46.592Z,98833.68
2023-10-26T03:53:15.105Z,98830.52
2023-10-26T03:55:43.374Z,98829.98
2023-10-26T03:58:16.657Z,98826.46
2023-10-26T04:00:48.561Z,98827.01
2023-10-26T04:03:18.602Z,98822.11
2023-10-26T04:05:48.457Z,98826.30
2023-10-26T04:08:18.425Z,98825.61
2023-10-26T04:10:48.324Z,98822.98
2023-10-26T04:13:16.706Z,98823.68
2023-10-26T04:15:45.189Z,98819.96
2023-10-26T04:18:13.602Z,98822.05
2023-10-26T04:20:42.141Z,98816.61
2023-10-26T04:23:10.431Z,98813.98
2023-10-26T04:25:53.267Z,98813.98
2023-10-26T04:28:25.409Z,98811.35
2023-10-26T04:30:55.313Z,98813.63
2023-10-26T04:33:25.239Z,98808.38
2023-10-26T04:35:55.299Z,98805.23
2023-10-26T04:38:25.239Z,98806.30
2023-10-26T04:40:55.132Z,98804.77
2023-10-26T04:43:25.232Z,98807.01
2023-10-26T04:45:55.099Z,98804.39
2023-10-26T04:48:25.074Z,98802.15
2023-10-26T04:50:55.277Z,98802.12
2023-10-26T04:53:25.421Z,98800.05
2023-10-26T04:55:55.487Z,98799.18
2023-10-26T04:58:25.391Z,98801.16
2023-10-26T05:00:55.302Z,98799.40
2023-10-26T05:03:25.278Z,98800.79
2023-10-26T05:05:55.313Z,98802.38
2023-10-26T05:08:25.347Z,98799.99
2023-10-26T05:10:55.301Z,98799.64
2023-10-26T05:13:26.254Z,98796.63
2023-10-26T05:15:57.088Z,98795.60
2023-10-26T05:18:27.061Z,98800.50
2023-10-26T05:20:56.521Z,98800.85
2023-10-26T05:23:23.806Z,98801.52
2023-10-26T05:25:52.288Z,98799.27
2023-10-26T05:28:20.754Z,98803.10
2023-10-26T05:30:49.157Z,98803.48
2023-10-26T05:33:17.559Z,98800.98
2023-10-26T05:35:46.029Z,98804.14
2023-10-26T05:38:17.298Z,98800.63
2023-10-26T05:40:58.545Z,98801.71
2023-10-26T05:43:28.438Z,98804.51
2023-10-26T05:46:04.818Z,98806.98
2023-10-26T05:48:35.615Z,98805.71
2023-10-26T05:51:06.495Z,98807.98
2023-10-26T05:53:36.403Z,98810.78
2023-10-26T05:56:07.126Z,98812.20
2023-10-26T05:58:37.018Z,98813.06
2023-10-26T06:01:07.175Z,98815.67
2023-10-26T06:03:37.103Z,98816.34
2023-10-26T06:06:07.438Z,98817.40
2023-10-26T06:08:38.433Z,98819.67
2023-10-26T06:11:08.264Z,98821.41
2023-10-26T06:13:38.149Z,98823.86
2023-10-26T06:16:08.958Z,98826.84
2023-10-26T06:18:38.877Z,98830.99
2023-10-26T06:21:09.155Z,98830.27
2023-10-26T06:23:39.034Z,98827.83
2023-10-26T06:26:10.306Z,98827.29
2023-10-26T06:28:40.441Z,98824.31
2023-10-26T06:31:17.996Z,98828.89
2023-10-26T06:33:48.177Z,98829.77
2023-10-26T06:36:18.242Z,98830.98
2023-10-26T06:38:48.250Z,98833.43
2023-10-26T06:41:16.472Z,98834.28
2023-10-26T06:43:45.847Z,98833.23
2023-10-26T06:46:13.487Z,98832.54
2023-10-26T06:48:41.918Z,98837.06
2023-10-26T06:51:10.354Z,98839.89
2023-10-26T06:53:38.541Z,98841.30
2023-10-26T06:56:16.102Z,98847.56
2023-10-26T06:58:46.054Z,98843.52
2023-10-26T07:01:20.258Z,98843.88
2023-10-26T07:03:52.295Z,98848.42
2023-10-26T07:06:20.117Z,98850.89
2023-10-26T07:08:50.269Z,98850.36
2023-10-26T07:11:24.197Z,98855.61
2023-10-26T07:13:54.056Z,98856.79
2023-10-26T07:16:23.911Z,98858.18
2023-10-26T07:18:53.868Z,98864.49
2023-10-26T07:21:23.738Z,98864.67
2023-10-26T07:23:54.637Z,98864.66
2023-10-26T07:26:24.470Z,98868.34
2023-10-26T07:28:56.407Z,98870.26
2023-10-26T07:31:26.217Z,98872.16
2023-10-26T07:33:56.244Z,98871.60
2023-10-26T07:36:31.413Z,98872.48
2023-10-26T07:39:45.954Z,98876.33
2023-10-26T07:42:07.326Z,98876.34
2023-10-26T07:44:39.245Z,98882.17
2023-10-26T07:47:10.123Z,98881.44
2023-10-26T07:49:40.291Z,98881.94
2023-10-26T07:52:11.240Z,98883.86
2023-10-26T07:54:41.098Z,98883.83
2023-10-26T07:57:11.230Z,98882.92
2023-10-26T07:59:41.048Z,98886.24
2023-10-26T08:02:11.057Z,98886.09
2023-10-26T08:04:41.008Z,98889.41
2023-10-26T08:07:11.045Z,98887.14
2023-10-26T08:09:40.940Z,98891.00
2023-10-26T08:12:11.792Z,98894.33
2023-10-26T08:16:09.383Z,98897.11
2023-10-26T08:17:36.702Z,98901.33
2023-10-26T08:20:11.920Z,98906.23
2023-10-26T08:22:41.685Z,98906.76
2023-10-26T08:25:10.590Z,98906.70
2023-10-26T08:27:38.825Z,98905.99
2023-10-26T08:30:08.147Z,98906.21
2023-10-26T08:32:35.616Z,98912.55
2023-10-26T08:35:04.988Z,98916.75
2023-10-26T08:37:32.356Z,98920.77
2023-10-26T08:40:00.788Z,98924.54
2023-10-26T08:42:31.662Z,98926.63
2023-10-26T08:45:03.801Z,98927.31
2023-10-26T08:47:35.359Z,98924.67
2023-10-26T08:50:16.417Z,98923.91
2023-10-26T08:52:45.054Z,98929.20
2023-10-26T08:55:13.188Z,98931.45
2023-10-26T08:57:50.470Z,98932.33
2023-10-26T09:00:21.125Z,98937.89
2023-10-26T09:02:52.249Z,98939.45
2023-10-26T09:05:22.512Z,98939.26
2023-10-26T09:07:52.664Z,98941.55
2023-10-26T09:10:34.336Z,98947.49
2023-10-26T09:13:07.288Z,98950.62
2023-10-26T09:15:53.036Z,98947.51
2023-10-26T09:18:23.064Z,98952.63
2023-10-26T09:21:04.949Z,98952.83
2023-10-26T09:23:41.387Z,98953.13
2023-10-26T09:26:12.017Z,98954.50
2023-10-26T09:28:57.333Z,98952.08
2023-10-26T09:31:27.409Z,98953.05
2023-10-26T09:34:11.907Z,98957.36
2023-10-26T09:36:41.898Z,98960.94
2023-10-26T09:39:11.951Z,98964.57
2023-10-26T09:41:42.486Z,98965.40
2023-10-26T09:44:12.434Z,98968.08
2023-10-26T09:46:41.456Z,98974.38
2023-10-26T09:49:09.752Z,98971.35
2023-10-26T09:51:37.657Z,98972.55
2023-10-26T09:54:09.726Z,98976.59
2023-10-26T09:56:42.385Z,98974.77
2023-10-26T09:59:14.273Z,98972.92
2023-10-26T10:01:44.392Z,98974.05
2023-10-26T10:04:14.732Z,98972.43
2023-10-26T10:06:52.000Z,98980.82
2023-10-26T10:09:29.638Z,98980.48
2023-10-26T10:12:16.331Z,98980.70
2023-10-26T10:14:49.433Z,98976.40
2023-10-26T10:17:20.544Z,98975.00
2023-10-26T10:20:19.052Z,98976.05
2023-10-26T10:22:51.693Z,98976.33
2023-10-26T10:25:24.272Z,98973.66
2023-10-26T10:27:54.141Z,98971.84
2023-10-26T10:30:32.524Z,98972.58
2023-10-26T10:33:03.709Z,98977.39
2023-10-26T10:35:45.138Z,98983.10
2023-10-26T10:38:15.375Z,98984.30
2023-10-26T10:41:00.274Z,98985.39
2023-10-26T10:43:46.172Z,98983.58
2023-10-26T10:46:29.172Z,98983.20
2023-10-26T10:49:07.942Z,98981.34
2023-10-26T10:51:45.881Z,98980.33
2023-10-26T10:54:40.230Z,98982.68
2023-10-26T10:57:10.623Z,98978.62
2023-10-26T10:59:40.446Z,98981.38
2023-10-26T11:02:15.748Z,98975.00
2023-10-26T11:07:33.977Z,98984.91
2023-10-26T11:10:04.222Z,98990.20
2023-10-26T11:12:32.297Z,98995.73
2023-10-26T11:14:59.613Z,98990.66
2023-10-26T11:17:31.762Z,98990.13
2023-10-26T11:20:00.798Z,98989.39
2023-10-26T11:22:30.772Z,98988.15
2023-10-26T11:25:00.739Z,98986.21
2023-10-26T11:27:35.147Z,98988.33
2023-10-26T11:30:07.045Z,98994.99
2023-10-26T11:32:35.890Z,98996.09
2023-10-26T11:35:17.617Z,98997.16
2023-10-26T11:37:57.172Z,98994.77
2023-10-26T11:40:32.962Z,98995.60
2023-10-26T11:43:06.660Z,98992.06
2023-10-26T11:45:49.637Z,98992.69
2023-10-26T11:48:30.619Z,98994.84
2023-10-26T11:51:00.628Z,99000.08
2023-10-26T11:53:30.615Z,99002.49
2023-10-26T11:56:00.515Z,99007.70
2023-10-26T11:58:30.392Z,99007.39
2023-10-26T12:01:00.241Z,99008.23
2023-10-26T12:03:30.373Z,99010.94
2023-10-26T12:06:00.248Z,99015.05
2023-10-26T12:08:30.094Z,99013.08
2023-10-26T12:10:59.937Z,99014.54
2023-10-26T12:13:29.721Z,99017.67
2023-10-26T12:15:59.544Z,99023.48
2023-10-26T12:18:29.586Z,99020.66
2023-10-26T12:21:00.369Z,99023.73
2023-10-26T12:23:30.274Z,99028.27
2023-10-26T12:26:00.126Z,99031.97
2023-10-26T12:28:30.816Z,99035.50
2023-10-26T12:31:00.887Z,99037.54
2023-10-26T12:33:30.826Z,99036.77
2023-10-26T12:36:00.678Z,99035.58
2023-10-26T12:38:30.588Z,99037.38
2023-10-26T12:40:58.954Z,99043.73
2023-10-26T12:43:27.371Z,99042.29
2023-10-26T12:45:55.719Z,99042.77
2023-10-26T12:48:24.137Z,99041.71
2023-10-26T12:50:52.597Z,99043.36
2023-10-26T12:53:21.367Z,99040.51
2023-10-26T12:55:49.439Z,99041.33
2023-10-26T12:58:18.051Z,99042.86
2023-10-26T13:00:49.395Z,99048.14
2023-10-26T13:03:17.682Z,99047.61
2023-10-26T13:05:46.215Z,99045.73
2023-10-26T13:08:14.717Z,99049.73
2023-10-26T13:10:44.351Z,99043.45
2023-10-26T13:13:14.497Z,99048.00
2023-10-26T13:15:44.341Z,99046.76
2023-10-26T13:18:14.322Z,99050.58
2023-10-26T13:20:44.267Z,99052.03
2023-10-26T13:23:14.216Z,99059.90
2023-10-26T13:25:45.164Z,99062.44
2023-10-26T13:28:15.294Z,99065.66
2023-10-26T13:30:45.273Z,99070.76
2023-10-26T13:33:16.099Z,99067.63
2023-10-26T13:35:46.030Z,99066.38
2023-10-26T13:38:16.115Z,99063.91
2023-10-26T13:40:46.387Z,99063.19
2023-10-26T13:43:16.828Z,99060.38
2023-10-26T13:45:47.280Z,99060.48
2023-10-26T13:48:17.171Z,99060.13
2023-10-26T13:50:59.172Z,99061.42
2023-10-26T13:53:29.100Z,99061.91
2023-10-26T13:56:02.560Z,99065.25
2023-10-26T13:58:32.495Z,99067.08
2023-10-26T14:01:02.489Z,99066.71
2023-10-26T14:03:32.478Z,99073.38
2023-10-26T14:06:02.358Z,99075.11
2023-10-26T14:08:33.280Z,99077.06
2023-10-26T14:11:03.801Z,99077.59
2023-10-26T14:13:33.601Z,99084.21
2023-10-26T14:16:04.017Z,99085.61
2023-10-26T14:18:33.966Z,99084.36
2023-10-26T14:21:04.870Z,99086.13
2023-10-26T14:23:32.261Z,99081.41
2023-10-26T14:26:01.866Z,99081.94
2023-10-26T14:28:29.045Z,99078.25
2023-10-26T14:30:57.866Z,99078.44
2023-10-26T14:33:25.993Z,99076.52
2023-10-26T14:35:54.500Z,99073.70
2023-10-26T14:38:22.909Z,99074.19
2023-10-26T14:41:01.991Z,99071.90
2023-10-26T14:43:31.818Z,99072.81
2023-10-26T14:46:01.627Z,99073.67
2023-10-26T14:48:31.540Z,99079.30
2023-10-26T14:51:01.826Z,99074.21
2023-10-26T14:53:32.286Z,99075.95
2023-10-26T14:56:05.143Z,99073.29
2023-10-26T14:58:33.736Z,99079.09
2023-10-26T15:01:02.135Z,99079.42
2023-10-26T15:03:30.441Z,99081.74
2023-10-26T15:06:01.933Z,99078.47
2023-10-26T15:08:32.797Z,99076.14
2023-10-26T15:11:23.830Z,99077.28
2023-10-26T15:13:55.606Z,99076.19
2023-10-26T15:16:27.686Z,99077.97
2023-10-26T15:18:58.086Z,99075.21
2023-10-26T15:21:28.124Z,99077.83
2023-10-26T15:23:58.034Z,99079.38
2023-10-26T15:26:27.937Z,99074.30
2023-10-26T15:28:57.784Z,99072.17
2023-10-26T15:31:28.007Z,99074.95
2023-10-26T15:33:58.849Z,99074.42
2023-10-26T15:36:29.320Z,99073.02
2023-10-26T15:38:58.621Z,99071.79
2023-10-26T15:41:26.105Z,99069.89
2023-10-26T15:43:54.674Z,99072.73
2023-10-26T15:46:23.023Z,99071.52
2023-10-26T15:49:32.521Z,99072.45
2023-10-26T15:51:41.115Z,99067.95
2023-10-26T15:54:11.083Z,99068.34
2023-10-26T15:56:40.934Z,99072.61
2023-10-26T15:59:10.843Z,99070.91
2023-10-26T16:01:40.765Z,99071.30
2023-10-26T16:04:10.680Z,99071.18
2023-10-26T16:06:40.664Z,99072.60
2023-10-26T16:09:10.627Z,99069.58
2023-10-26T16:11:40.565Z,99070.96
2023-10-26T16:14:10.429Z,99070.48
2023-10-26T16:16:40.572Z,99074.40
2023-10-26T16:19:10.946Z,99069.71
2023-10-26T16:21:41.234Z,99075.15
2023-10-26T16:24:13.602Z,99074.46
2023-10-26T16:26:43.497Z,99077.62
2023-10-26T16:29:13.651Z,99077.58
2023-10-26T16:31:43.460Z,99074.73
2023-10-26T16:34:13.345Z,99074.93
2023-10-26T16:36:43.261Z,99075.09
2023-10-26T16:39:13.186Z,99077.69
2023-10-26T16:41:43.198Z,99078.41
2023-10-26T16:44:13.099Z,99078.81
2023-10-26T16:46:43.022Z,99075.68
2023-10-26T16:49:12.939Z,99075.29
2023-10-26T16:51:42.857Z,99072.09
2023-10-26T16:54:12.838Z,99073.56
2023-10-26T16:56:42.706Z,99075.50
2023-10-26T16:59:11.208Z,99073.38
2023-10-26T17:01:39.470Z,99071.74
2023-10-26T17:04:08.097Z,99070.48
2023-10-26T17:06:36.394Z,99072.94
2023-10-26T17:09:05.522Z,99066.45
2023-10-26T17:11:33.111Z,99067.31
2023-10-26T17:14:01.580Z,99071.60
2023-10-26T17:16:30.127Z,99081.21
2023-10-26T17:18:58.522Z,99081.25
2023-10-26T17:21:27.144Z,99082.67
2023-10-26T17:23:55.357Z,99081.60
2023-10-26T17:26:23.819Z,99077.73
2023-10-26T17:28:52.499Z,99078.21
2023-10-26T17:31:20.588Z,99075.42
2023-10-26T17:33:49.946Z,99071.73
2023-10-26T17:36:17.374Z,99074.34
2023-10-26T17:38:45.820Z,99075.75
2023-10-26T17:41:14.984Z,99073.84
2023-10-26T17:43:43.314Z,99072.42
2023-10-26T17:46:11.523Z,99069.48
2023-10-26T17:48:39.611Z,99071.61
2023-10-26T17:51:09.924Z,99069.85
2023-10-26T17:53:42.881Z,99072.16
2023-10-26T17:56:15.615Z,99074.42
2023-10-26T17:58:45.573Z,99074.43
2023-10-26T18:01:16.631Z,99076.86
2023-10-26T18:03:46.616Z,99073.54
2023-10-26T18:06:17.735Z,99074.08
2023-10-26T18:08:48.544Z,99077.73
2023-10-26T18:11:18.844Z,99080.69
2023-10-26T18:13:46.881Z,99083.13
2023-10-26T18:16:15.341Z,99083.14
2023-10-26T18:18:44.216Z,99080.16
2023-10-26T18:21:12.318Z,99081.71
2023-10-26T18:23:40.441Z,99079.73
2023-10-26T18:26:11.742Z,99080.97
2023-10-26T18:28:45.292Z,99080.59
2023-10-26T18:31:17.743Z,99077.80
2023-10-26T18:33:50.462Z,99080.14
2023-10-26T18:36:22.515Z,99081.37
2023-10-26T18:38:52.406Z,99089.11
2023-10-26T18:41:27.599Z,99087.38
2023-10-26T18:43:57.657Z,99086.85
2023-10-26T18:46:27.746Z,99086.84
2023-10-26T18:48:57.781Z,99083.64
2023-10-26T18:51:27.773Z,99086.11
2023-10-26T18:53:57.746Z,99087.27
2023-10-26T18:56:28.225Z,99090.45
2023-10-26T18:58:58.210Z,99094.86
2023-10-26T19:01:28.165Z,99099.80
2023-10-26T19:04:02.781Z,99101.74
2023-10-26T19:06:33.181Z,99104.05
2023-10-26T19:09:03.755Z,99101.43
2023-10-26T19:11:33.595Z,99106.30
2023-10-26T19:14:02.209Z,99104.02
2023-10-26T19:16:30.523Z,99106.34
2023-10-26T19:18:58.887Z,99102.98
2023-10-26T19:21:28.380Z,99098.91
2023-10-26T19:23:55.765Z,99098.37
2023-10-26T19:26:24.103Z,99099.60
2023-10-26T19:28:53.118Z,99102.83
2023-10-26T19:31:20.998Z,99105.15
2023-10-26T19:33:49.826Z,99108.10
2023-10-26T19:36:17.807Z,99105.47
2023-10-26T19:38:46.195Z,99104.06
2023-10-26T19:41:15.895Z,99104.25
2023-10-26T19:43:43.080Z,99099.72
2023-10-26T19:46:12.458Z,99094.86
2023-10-26T19:48:40.032Z,99091.67
2023-10-26T19:51:08.176Z,99095.21
2023-10-26T19:53:36.822Z,99100.30
2023-10-26T19:56:05.850Z,99105.39
2023-10-26T19:58:33.472Z,99111.13
2023-10-26T20:01:01.882Z,99111.30
2023-10-26T20:03:30.418Z,99110.73
2023-10-26T20:05:58.659Z,99110.09
2023-10-26T20:08:27.109Z,99105.38
2023-10-26T20:10:55.452Z,99108.73
2023-10-26T20:13:23.854Z,99098.77
2023-10-26T20:15:53.349Z,99097.35
2023-10-26T20:18:20.740Z,99086.50
2023-10-26T20:20:49.041Z,99083.16
2023-10-26T20:23:17.542Z,99082.33
2023-10-26T20:25:45.944Z,99086.23
2023-10-26T20:28:16.863Z,99094.45
2023-10-26T20:30:45.765Z,99097.61
2023-10-26T20:33:14.169Z,99100.59
2023-10-26T20:35:42.724Z,99102.86
2023-10-26T20:38:11.017Z,99105.30
2023-10-26T20:40:40.921Z,99106.52
2023-10-26T20:43:07.837Z,99105.98
2023-10-26T20:45:36.248Z,99105.67
2023-10-26T20:48:05.604Z,99105.30
2023-10-26T20:50:34.106Z,99101.79
2023-10-26T20:53:02.113Z,99096.34
2023-10-26T20:55:30.126Z,99090.42
2023-10-26T20:57:58.337Z,99088.86
2023-10-26T21:00:26.698Z,99086.05
2023-10-26T21:02:55.345Z,99084.11
2023-10-26T21:05:25.326Z,99080.07
2023-10-26T21:07:56.171Z,99081.11
2023-10-26T21:10:26.195Z,99083.23
2023-10-26T21:12:56.109Z,99083.56
2023-10-26T21:15:26.078Z,99085.27
2023-10-26T21:17:56.488Z,99087.36
2023-10-26T21:20:26.683Z,99085.15
2023-10-26T21:22:56.575Z,99084.10
2023-10-26T21:25:28.895Z,99080.23
2023-10-26T21:27:58.776Z,99078.98
2023-10-26T21:30:28.791Z,99075.64
2023-10-26T21:32:58.778Z,99079.88
2023-10-26T21:35:32.849Z,99081.95
2023-10-26T21:38:05.442Z,99076.52
2023-10-26T21:40:38.643Z,99069.81
2023-10-26T21:43:08.481Z,99068.40
2023-10-26T21:45:38.666Z,99067.00
2023-10-26T21:48:08.525Z,99068.41
2023-10-26T21:50:38.428Z,99067.22
2023-10-26T21:53:08.820Z,99066.36
2023-10-26T21:55:40.587Z,99072.11
2023-10-26T21:58:11.418Z,99078.75
2023-10-26T22:00:42.068Z,99081.59
2023-10-26T22:03:12.357Z,99083.86
2023-10-26T22:05:42.326Z,99083.16
2023-10-26T22:08:12.172Z,99086.28
2023-10-26T22:10:42.042Z,99082.24
2023-10-26T22:13:10.599Z,99078.92
2023-10-26T22:15:38.927Z,99073.37
2023-10-26T22:18:10.744Z,99073.40
2023-10-26T22:20:39.917Z,99076.57
2023-10-26T22:23:07.313Z,99071.83
2023-10-26T22:25:35.487Z,99072.17
2023-10-26T22:28:07.623Z,99064.10
2023-10-26T22:30:37.777Z,99059.52
2023-10-26T22:33:07.702Z,99059.16
2023-10-26T22:35:37.605Z,99054.78
2023-10-26T22:38:07.511Z,99057.45
2023-10-26T22:40:37.978Z,99062.36
2023-10-26T22:43:08.051Z,99060.97
2023-10-26T22:45:37.934Z,99056.38
2023-10-26T22:48:07.797Z,99055.30
2023-10-26T22:50:37.646Z,99053.52
2023-10-26T22:53:07.443Z,99060.05
2023-10-26T22:55:37.272Z,99065.64
2023-10-26T22:58:05.730Z,99064.79
2023-10-26T23:00:36.372Z,99061.09
2023-10-26T23:03:06.283Z,99057.80
2023-10-26T23:05:35.002Z,99057.77
2023-10-26T23:08:05.997Z,99061.33
2023-10-26T23:10:36.871Z,99056.55
2023-10-26T23:13:07.304Z,99058.63
2023-10-26T23:15:37.162Z,99054.81
2023-10-26T23:18:07.299Z,99052.54
2023-10-26T23:20:37.217Z,99051.62
2023-10-26T23:23:07.026Z,99042.33
2023-10-26T23:25:45.375Z,99035.32
2023-10-26T23:28:15.486Z,99032.34
2023-10-26T23:30:45.286Z,99031.88
2023-10-26T23:33:15.606Z,99033.59
2023-10-26T23:35:46.134Z,99028.67
2023-10-26T23:38:15.992Z,99022.17
2023-10-26T23:40:45.888Z,99023.73
2023-10-26T23:43:15.742Z,99021.84
2023-10-26T23:45:45.699Z,99023.60
2023-10-26T23:48:15.529Z,99022.57
2023-10-26T23:50:45.892Z,99018.73
2023-10-26T23:53:17.663Z,99017.35
2023-10-26T23:55:49.045Z,99017.86
2023-10-26T23:58:18.894Z,99016.79
